Main page
METAR-TAF:

METAR-TAF

Airports :

Rarotonga International Airport

Rarotonga, Cook Islands

latitude: 21-12S, longitude: 159-49W, elevation: 7 m

Current weather observation

The report was made 30 minutes ago, at 05:00 UTC
Wind 9 kt from the East/Southeast, varying between East/Northeast and South
Temperature 25°C
Humidity 69%
Pressure 1014 hPa
Visibility 10 km or more

METAR: NCRG 240500Z AUTO 12009KT 070V170 9999 SCT029/// SCT035/// 25/19 Q1014

Time: 19:30 (05:30 UTC)

Forecast

The report was made 5 hours and 52 minutes ago, at 23:38 UTC
Forecast valid from 24 at 00 UTC to 24 at 24 UTC
Wind 10 kt from the East/Southeast
Visibility 10 km or more
Scattered clouds at a height of 3000 ft
Probability 30% :
Temporary
from 24 at 00 UTC to 24 at 06 UTC
Wind 12 kt from the East/Southeast with gusts up to 25 kt

TAF: NCRG 232338Z 2400/2424 11010KT 9999 SCT030 PROB30 TEMPO 2400/2406 12012G25KT

Weather observations and forecasts of more than 4000 airports (METAR and TAF reports).

The available stations are represented by yellow and red dots on the map.

Hover mouse over dot to see the name of the station.

Then click to see weather observations and forecasts.

To change the map : click on the green buttons with a black cross to zoom in, on the green button with a dash to zoom out, or on the green arrows for adjacent maps.


METAR-TAF: